Itinga, Brazil
Current Conditions -  °F | °C
As of 8:00 AM on Thursday 23 Oct 2014 (Local Time) from SBQV Reporting Station
Drizzle Drizzle  
Wind Chill: 63°   Ceiling: 500
Heat Index: 63°   Visibility: 4mi
Dew Point: 63°   Wind: 9mph
Humidity: 100%   Direction: 130°SE
Pressure: 30.18"   Gusts: NA
Location:  16.61°S, 41.77°W
Report Text: SBQV 231000Z 13008KT 7000 -DZ OVC005 17/17 Q1022
Loading
Personal Weather Stations






























Interactive Weather Map
Tropical Storm Tracking
New forecast layout! Learn more

10-Day Weather Forecast

Advertisements
Track Severe Weather on mobile